Osborne, Kansas
Current Conditions -  °F | °C
As of 11:53 AM on Friday 28 Nov 2014 (Local Time) from KRSL Reporting Station
Clear Clear  
Wind Chill: 61°   Ceiling: Unl
Heat Index: 61°   Visibility: 10mi
Dew Point: 31°   Wind: 14mph
Humidity: 32%   Direction: 220°SW
Pressure: 29.82"   Gusts: NA
Location:  39.44°N, 98.69°W
Report Text: KRSL 281753Z AUTO 22012KT 10SM CLR 16/M01 A2982 RMK AO2 SLP102 T01611006 10161 20000 58018
Loading
Personal Weather Stations






























Interactive Weather Map New forecast layout! Learn more

10-Day Weather Forecast

Advertisements
Track Severe Weather on mobile